Happy Valentine's Day! 

Flight Track Log - Related Links

Times and Time Zones

All times are in EDT time to prevent confusion due to time zone crossing. See the N231CW flight status page for this flight to view local times or setup timezone preferences in your user account.


Time Position Orientation Groundspeed Altitude Reporting Facility
EDT Latitude Longitude Course Direction KTS MPH feet Rate Location/Type
Sun 02:34:52 PM 32.8858 -97.5411 198° South 130 150 2,700  Level Fort Worth Center
Sun 02:35:54 PM 32.8608 -97.5500 197° South 101 116 3,800 919 Climbing Fort Worth Center
Sun 02:36:56 PM 32.8350 -97.5586 196° South 86 99 4,600 726 Climbing Fort Worth Center
Sun 02:37:58 PM 32.8150 -97.5669 199° South 80 92 5,300 720 Climbing Fort Worth Center
Sun 02:39:01 PM 32.7942 -97.5750 198° South 80 92 6,100 720 Climbing Fort Worth Center
Sun 02:40:00 PM 32.5951 -97.4331 198° South  Level FlightAware Approximate
Sun 02:40:03 PM 32.7706 -97.5833 197° South 80 92 6,800  Level Fort Worth Center
Sun 02:41:05 PM 32.7456 -97.5936 199° South 90 104 7,400 677 Climbing Fort Worth Center
Sun 02:42:07 PM 32.7178 -97.6042 198° South 93 107 8,200 532 Climbing Fort Worth Center
Sun 02:43:09 PM 32.6922 -97.6136 197° South 95 109 8,500 145 Climbing Fort Worth Center
Sun 02:44:11 PM 32.6556 -97.6261 196° South 133 153 8,500 339 Level Fort Worth Center
Sun 02:45:13 PM 32.6139 -97.6347 190° South 134 154 9,200 677 Climbing Fort Worth Center
Sun 02:46:15 PM 32.5881 -97.6508 208° Southwest 108 124 9,900 677 Climbing Fort Worth Center
Sun 02:47:17 PM 32.5567 -97.6644 200° South 110 127 10,600 629 Climbing Fort Worth Center
Sun 02:48:19 PM 32.5294 -97.6742 197° South 111 128 11,200 624 Climbing Fort Worth Center
Sun 02:49:22 PM 32.4994 -97.6864 199° South 109 125 11,900 576 Climbing Fort Worth Center
Sun 02:50:24 PM 32.4672 -97.6958 194° South 109 125 12,400 242 Climbing Fort Worth Center
Sun 02:51:26 PM 32.4308 -97.7028 189° South 127 146 12,400 48 Level Fort Worth Center
Sun 02:52:28 PM 32.3875 -97.7203 199° South 148 170 12,500 48 Climbing Fort Worth Center
Sun 02:53:30 PM 32.3514 -97.7433 208° Southwest 147 169 12,500 435 Level Fort Worth Center
Sun 02:54:32 PM 32.3156 -97.7592 200° South 137 158 13,400 871 Climbing Fort Worth Center
Sun 02:55:34 PM 32.2817 -97.7606 182° South 116 133 14,300 484 Climbing Fort Worth Center
Sun 02:56:36 PM 32.2497 -97.7747 201° Southwest 125 144 14,400 97 Climbing Fort Worth Center
Sun 02:57:38 PM 32.2072 -97.7944 201° Southwest 148 170 14,500 48 Climbing Fort Worth Center
Sun 02:58:40 PM 32.1678 -97.8097 198° South 149 171 14,500  Level Fort Worth Center
Sun 02:59:43 PM 32.1261 -97.8253 198° South 153 176 14,500  Level Fort Worth Center
Sun 03:00:45 PM 32.0806 -97.8433 199° South 158 182 14,500  Level Fort Worth Center
Sun 03:01:47 PM 32.0386 -97.8583 197° South 157 181 14,500  Level Fort Worth Center
Sun 03:02:49 PM 31.9931 -97.8742 196° South 158 182 14,500  Level Fort Worth Center
Sun 03:03:51 PM 31.9517 -97.8922 200° South 160 184 14,500  Level Fort Worth Center
Sun 03:04:53 PM 31.9089 -97.9044 194° South 160 184 14,500  Level Fort Worth Center
Sun 03:05:55 PM 31.8675 -97.9231 201° Southwest 160 184 14,500  Level Fort Worth Center
Sun 03:06:57 PM 31.8275 -97.9392 199° South 158 182 14,500  Level Fort Worth Center
Sun 03:07:59 PM 31.7847 -97.9542 197° South 158 182 14,500  Level Fort Worth Center
Sun 03:09:01 PM 31.7333 -97.9700 195° South 158 182 14,500 -48 Level Fort Worth Center
Sun 03:10:04 PM 31.6922 -97.9847 197° South 158 182 14,400  Descending Fort Worth Center
Sun 03:11:06 PM 31.6542 -98.0006 200° South 153 176 14,500 48 Climbing Fort Worth Center
Sun 03:12:08 PM 31.6175 -98.0156 199° South 145 167 14,500  Level Fort Worth Center
Sun 03:13:10 PM 31.5758 -98.0275 194° South 146 168 14,500  Level Fort Worth Center
Sun 03:14:12 PM 31.5250 -98.0467 198° South 158 182 14,500  Level Fort Worth Center
Sun 03:15:14 PM 31.4853 -98.0622 198° South 156 180 14,500  Level Fort Worth Center
Sun 03:16:16 PM 31.4428 -98.0775 197° South 156 180 14,500  Level Fort Worth Center
Sun 03:17:18 PM 31.4008 -98.0922 197° South 157 181 14,500  Level Fort Worth Center
Sun 03:18:20 PM 31.3597 -98.1069 197° South 157 181 14,500  Level Fort Worth Center
Sun 03:19:22 PM 31.3172 -98.1214 196° South 157 181 14,500 -48 Level Fort Worth Center
Sun 03:20:25 PM 31.2672 -98.1408 198° South 157 181 14,400 -48 Descending Fort Worth Center
Sun 03:21:27 PM 31.2247 -98.1553 196° South 158 182 14,400 48 Level Fort Worth Center
Sun 03:22:29 PM 31.1817 -98.1714 198° South 158 182 14,500  Climbing Fort Worth Center
Sun 03:23:31 PM 31.1464 -98.1850 198° South 155 178 14,400 -48 Descending Fort Worth Center
Sun 03:24:33 PM 31.1056 -98.2006 198° South 155 178 14,400  Level Fort Worth Center
Sun 03:25:41 PM 31.0583 -98.2181 198° South 155 178 14,400  Level Houston Center
Sun 03:26:43 PM 31.0092 -98.2361 197° South 155 178 14,400  Level Houston Center
Sun 03:27:45 PM 30.9697 -98.2497 196° South 152 175 14,400  Level Houston Center
Sun 03:28:47 PM 30.9297 -98.2650 198° South 152 175 14,400  Level Houston Center
Sun 03:29:50 PM 30.8889 -98.2786 196° South 152 175 14,400  Level Houston Center
Sun 03:30:52 PM 30.8481 -98.2942 198° South 152 175 14,400 48 Level Houston Center
Sun 03:31:54 PM 30.7989 -98.3108 196° South 152 175 14,500  Climbing Houston Center
Sun 03:32:56 PM 30.7564 -98.3267 198° South 154 177 14,400 -48 Descending Houston Center
Sun 03:33:58 PM 30.7144 -98.3414 197° South 157 181 14,400  Level Houston Center
Sun 03:35:00 PM 30.6714 -98.3564 197° South 156 180 14,400 48 Level Houston Center
Sun 03:36:02 PM 30.6314 -98.3703 197° South 157 181 14,500  Climbing Houston Center
Sun 03:37:05 PM 30.5803 -98.3889 197° South 157 181 14,400 -48 Descending Houston Center
Sun 03:38:07 PM 30.5400 -98.4028 197° South 157 181 14,400  Level Houston Center
Sun 03:39:09 PM 30.4992 -98.4186 198° South 156 180 14,400 48 Level Houston Center
Sun 03:40:11 PM 30.4581 -98.4331 197° South 156 180 14,500 -97 Climbing Houston Center
Sun 03:41:13 PM 30.4181 -98.4478 198° South 153 176 14,200 -581 Descending Houston Center
Sun 03:42:15 PM 30.3719 -98.4647 198° South 164 189 13,300 -968 Descending Houston Center
Sun 03:43:17 PM 30.3122 -98.4867 198° South 179 206 12,200 -1,053 Descending Houston Center
Sun 03:44:09 PM 30.2656 -98.5044 198° South 188 216 11,300 -952 Descending Houston Center
Sun 03:44:20 PM 30.2589 -98.5050 184° South 187 215 11,200 -1,000 Descending Houston Center
Sun 03:44:33 PM 30.2469 -98.5092 197° South 189 217 10,900 -1,161 Descending Houston Center
Sun 03:45:22 PM 30.2075 -98.5225 196° South 192 221 10,000 -1,082 Descending Houston Center
Sun 03:45:34 PM 30.1942 -98.5278 199° South 196 226 9,800 -968 Descending Houston Center
Sun 03:46:24 PM 30.1525 -98.5428 197° South 194 223 9,000 -787 Descending Houston Center
Sun 03:46:35 PM 30.1433 -98.5458 196° South 191 220 9,000 -581 Level Houston Center
Sun 03:47:26 PM 30.1069 -98.5592 198° South 175 201 8,400 -700 Descending Houston Center
Sun 03:47:35 PM 30.1006 -98.5606 191° South 165 190 8,300 -774 Descending Houston Center
Sun 03:48:28 PM 30.0625 -98.5756 199° South 159 183 7,600 -764 Descending Houston Center
Sun 03:48:30 PM 30.0622 -98.5772 259° West 153 176 7,600 -677 Level Houston Center
Sun 03:49:30 PM 30.0219 -98.5889 194° South 155 178 6,900 -689 Descending Houston Center
Sun 03:49:31 PM 30.0214 -98.5894 221° Southwest 151 174 6,900 -762 Level Houston Center
Sun 03:50:33 PM 29.9783 -98.6042 196° South 154 177 6,100 -806 Descending Houston Center
Sun 03:50:38 PM 29.9747 -98.6072 216° Southwest 151 174 6,000 -900 Descending Houston Center
Sun 03:51:33 PM 29.9378 -98.6186 195° South 147 169 5,200 -842 Descending Houston Center
Sun 03:51:35 PM 29.9389 -98.6183 12° North 152 175 5,200 -281 Level Houston Center
Sun 03:52:37 PM 29.9017 -98.6325 198° South 149 171 4,900 -290 Descending Houston Center
Sun 03:55:00 PM 29.8133 -98.6568 193° South  Level FlightAware Approximate
Sun 04:02:00 PM 29.7167 -98.6833 197° South  Level FlightAware Approximate
Sun 04:03:00 PM 29.6900 -98.6520 134° Southeast  Level Estimated
Sun 04:04:00 PM 29.6633 -98.6207 134° Southeast  Level Estimated
Sun 04:05:00 PM 29.6366 -98.5893 134° Southeast  Level Estimated
Sun 04:06:00 PM 29.6099 -98.5580 134° Southeast  Level Estimated
Sun 04:07:00 PM 29.5833 -98.5267 134° Southeast  Level Estimated
Sun 04:08:00 PM 29.5565 -98.4955 134° Southeast  Level Estimated
Sun 04:09:00 PM 29.5340 -98.4691 134° Southeast  Level Estimated
Sun 04:10:00 PM 29.5340 -98.4691 North  Level Estimated
Sun 04:11:00 PM 29.5340 -98.4691 North  Level Estimated
Sun 04:12:00 PM 29.5340 -98.4691 North  Level Estimated
Sun 04:13:00 PM 29.5340 -98.4691 North  Level Estimated
Sun 04:14:00 PM 29.5340 -98.4691 North  Level Estimated
Sun 04:15:00 PM 29.5340 -98.4691 North  Level Estimated
Sun 04:16:00 PM 29.5340 -98.4691 North  Level Estimated
Sun 04:17:00 PM 29.5340 -98.4691 North  Level Estimated

Login

Don't have an account? Register now (free) for customized features, flight alerts, and more!